sensor_id;sensor_type;location;lat;lon;timestamp;pressure;altitude;pressure_sealevel;temperature;humidity
71573;BME280;59408;51.032;9.410;2023-03-05T00:00:47;99347.25;;;0.75;92.73
71573;BME280;59408;51.032;9.410;2023-03-05T00:03:13;99335.94;;;0.73;93.42
71573;BME280;59408;51.032;9.410;2023-03-05T00:05:40;99340.00;;;0.71;93.49
71573;BME280;59408;51.032;9.410;2023-03-05T00:08:06;99336.75;;;0.69;93.91
71573;BME280;59408;51.032;9.410;2023-03-05T00:10:33;99336.22;;;0.67;94.22
71573;BME280;59408;51.032;9.410;2023-03-05T00:13:00;99333.81;;;0.65;94.24
71573;BME280;59408;51.032;9.410;2023-03-05T00:15:28;99340.78;;;0.66;94.56
71573;BME280;59408;51.032;9.410;2023-03-05T00:17:54;99327.09;;;0.68;93.49
71573;BME280;59408;51.032;9.410;2023-03-05T00:20:21;99330.03;;;0.66;93.99
71573;BME280;59408;51.032;9.410;2023-03-05T00:22:47;99320.94;;;0.72;93.46
71573;BME280;59408;51.032;9.410;2023-03-05T00:25:14;99323.34;;;0.74;93.09
71573;BME280;59408;51.032;9.410;2023-03-05T00:27:41;99330.59;;;0.73;93.85
71573;BME280;59408;51.032;9.410;2023-03-05T00:30:08;99324.44;;;0.73;94.36
71573;BME280;59408;51.032;9.410;2023-03-05T00:32:37;99326.56;;;0.76;92.65
71573;BME280;59408;51.032;9.410;2023-03-05T00:35:04;99322.00;;;0.76;93.34
71573;BME280;59408;51.032;9.410;2023-03-05T00:37:31;99314.22;;;0.75;92.57
71573;BME280;59408;51.032;9.410;2023-03-05T00:39:58;99321.47;;;0.74;92.77
71573;BME280;59408;51.032;9.410;2023-03-05T00:42:24;99315.84;;;0.71;93.21
71573;BME280;59408;51.032;9.410;2023-03-05T00:44:51;99316.91;;;0.70;93.15
71573;BME280;59408;51.032;9.410;2023-03-05T00:47:17;99307.75;;;0.66;93.83
71573;BME280;59408;51.032;9.410;2023-03-05T00:49:45;99310.72;;;0.64;93.83
71573;BME280;59408;51.032;9.410;2023-03-05T00:52:12;99311.00;;;0.63;93.23
71573;BME280;59408;51.032;9.410;2023-03-05T00:54:39;99305.91;;;0.61;92.38
71573;BME280;59408;51.032;9.410;2023-03-05T00:57:05;99302.94;;;0.63;92.07
71573;BME280;59408;51.032;9.410;2023-03-05T00:59:32;99301.06;;;0.58;91.62
71573;BME280;59408;51.032;9.410;2023-03-05T01:01:58;99298.63;;;0.57;89.56
71573;BME280;59408;51.032;9.410;2023-03-05T01:04:25;99297.28;;;0.59;88.44
71573;BME280;59408;51.032;9.410;2023-03-05T01:06:53;99294.34;;;0.56;88.35
71573;BME280;59408;51.032;9.410;2023-03-05T01:09:19;99284.94;;;0.58;86.15
71573;BME280;59408;51.032;9.410;2023-03-05T01:11:46;99272.06;;;0.60;85.54
71573;BME280;59408;51.032;9.410;2023-03-05T01:14:13;99285.22;;;0.62;85.77
71573;BME280;59408;51.032;9.410;2023-03-05T01:16:40;99269.13;;;0.62;85.52
71573;BME280;59408;51.032;9.410;2023-03-05T01:19:06;99269.38;;;0.60;85.36
71573;BME280;59408;51.032;9.410;2023-03-05T01:21:33;99270.47;;;0.59;85.53
71573;BME280;59408;51.032;9.410;2023-03-05T01:24:01;99267.50;;;0.56;85.70
71573;BME280;59408;51.032;9.410;2023-03-05T01:26:28;99260.78;;;0.58;84.89
71573;BME280;59408;51.032;9.410;2023-03-05T01:28:55;99261.06;;;0.57;85.61
71573;BME280;59408;51.032;9.410;2023-03-05T01:31:22;99259.44;;;0.56;85.28
71573;BME280;59408;51.032;9.410;2023-03-05T01:33:50;99257.84;;;0.55;85.22
71573;BME280;59408;51.032;9.410;2023-03-05T01:36:17;99260.00;;;0.63;84.33
71573;BME280;59408;51.032;9.410;2023-03-05T01:38:44;99257.84;;;0.65;84.41
71573;BME280;59408;51.032;9.410;2023-03-05T01:41:15;99257.84;;;0.65;85.21
71573;BME280;59408;51.032;9.410;2023-03-05T01:43:42;99263.19;;;0.65;86.03
71573;BME280;59408;51.032;9.410;2023-03-05T01:46:31;99253.28;;;0.65;86.98
71573;BME280;59408;51.032;9.410;2023-03-05T01:49:02;99257.31;;;0.63;87.74
71573;BME280;59408;51.032;9.410;2023-03-05T01:51:33;99253.03;;;0.62;88.14
71573;BME280;59408;51.032;9.410;2023-03-05T01:54:01;99246.31;;;0.59;88.86
71573;BME280;59408;51.032;9.410;2023-03-05T01:56:30;99239.84;;;0.55;88.94
71573;BME280;59408;51.032;9.410;2023-03-05T01:58:58;99235.03;;;0.52;90.02
71573;BME280;59408;51.032;9.410;2023-03-05T02:01:25;99231.53;;;0.52;89.84
71573;BME280;59408;51.032;9.410;2023-03-05T02:03:51;99240.94;;;0.49;89.44
71573;BME280;59408;51.032;9.410;2023-03-05T02:06:18;99230.19;;;0.49;88.64
71573;BME280;59408;51.032;9.410;2023-03-05T02:08:45;99228.06;;;0.51;87.56
71573;BME280;59408;51.032;9.410;2023-03-05T02:11:11;99228.06;;;0.51;86.97
71573;BME280;59408;51.032;9.410;2023-03-05T02:13:39;99231.81;;;0.45;87.33
71573;BME280;59408;51.032;9.410;2023-03-05T02:16:06;99232.91;;;0.44;86.64
71573;BME280;59408;51.032;9.410;2023-03-05T02:18:33;99232.34;;;0.47;86.29
71573;BME280;59408;51.032;9.410;2023-03-05T02:21:05;99227.53;;;0.44;86.00
71573;BME280;59408;51.032;9.410;2023-03-05T02:23:33;99223.78;;;0.45;86.48
71573;BME280;59408;51.032;9.410;2023-03-05T02:26:01;99221.88;;;0.40;87.21
71573;BME280;59408;51.032;9.410;2023-03-05T02:28:31;99221.06;;;0.40;87.41
71573;BME280;59408;51.032;9.410;2023-03-05T02:31:00;99212.22;;;0.39;87.61
71573;BME280;59408;51.032;9.410;2023-03-05T02:33:26;99212.47;;;0.38;88.03
71573;BME280;59408;51.032;9.410;2023-03-05T02:35:53;99206.59;;;0.36;88.49
71573;BME280;59408;51.032;9.410;2023-03-05T02:38:21;99203.63;;;0.32;88.58
71573;BME280;59408;51.032;9.410;2023-03-05T02:40:48;99196.91;;;0.30;88.78
71573;BME280;59408;51.032;9.410;2023-03-05T02:43:14;99203.34;;;0.29;88.30
71573;BME280;59408;51.032;9.410;2023-03-05T02:45:41;99200.66;;;0.29;88.92
71573;BME280;59408;51.032;9.410;2023-03-05T02:48:08;99189.94;;;0.29;88.74
71573;BME280;59408;51.032;9.410;2023-03-05T02:50:35;99197.19;;;0.33;86.35
71573;BME280;59408;51.032;9.410;2023-03-05T02:53:02;99189.97;;;0.34;86.08
71573;BME280;59408;51.032;9.410;2023-03-05T02:55:29;99188.88;;;0.35;86.21
71573;BME280;59408;51.032;9.410;2023-03-05T02:57:56;99182.16;;;0.32;85.93
71573;BME280;59408;51.032;9.410;2023-03-05T03:00:23;99181.63;;;0.30;86.12
71573;BME280;59408;51.032;9.410;2023-03-05T03:02:50;99181.38;;;0.32;85.38
71573;BME280;59408;51.032;9.410;2023-03-05T03:05:16;99189.69;;;0.30;85.82
71573;BME280;59408;51.032;9.410;2023-03-05T03:07:43;99178.94;;;0.30;85.36
71573;BME280;59408;51.032;9.410;2023-03-05T03:10:11;99173.59;;;0.30;84.52
71573;BME280;59408;51.032;9.410;2023-03-05T03:12:39;99164.47;;;0.31;84.40
71573;BME280;59408;51.032;9.410;2023-03-05T03:15:08;99167.97;;;0.27;85.02
71573;BME280;59408;51.032;9.410;2023-03-05T03:17:35;99158.56;;;0.24;85.02
71573;BME280;59408;51.032;9.410;2023-03-05T03:20:04;99156.69;;;0.25;85.30
71573;BME280;59408;51.032;9.410;2023-03-05T03:22:31;99157.25;;;0.27;85.22
71573;BME280;59408;51.032;9.410;2023-03-05T03:24:58;99152.69;;;0.27;84.58
71573;BME280;59408;51.032;9.410;2023-03-05T03:27:25;99151.31;;;0.30;84.63
71573;BME280;59408;51.032;9.410;2023-03-05T03:29:53;99142.47;;;0.29;84.01
71573;BME280;59408;51.032;9.410;2023-03-05T03:32:20;99141.94;;;0.27;83.86
71573;BME280;59408;51.032;9.410;2023-03-05T03:34:46;99133.09;;;0.27;83.97
71573;BME280;59408;51.032;9.410;2023-03-05T03:37:13;99133.63;;;0.24;84.24
71573;BME280;59408;51.032;9.410;2023-03-05T03:39:40;99130.66;;;0.20;84.65
71573;BME280;59408;51.032;9.410;2023-03-05T03:42:06;99128.53;;;0.22;84.69
71573;BME280;59408;51.032;9.410;2023-03-05T03:44:33;99123.41;;;0.21;84.97
71573;BME280;59408;51.032;9.410;2023-03-05T03:47:01;99123.69;;;0.19;85.00
71573;BME280;59408;51.032;9.410;2023-03-05T03:49:27;99124.78;;;0.23;84.29
71573;BME280;59408;51.032;9.410;2023-03-05T03:51:54;99122.63;;;0.20;84.86
71573;BME280;59408;51.032;9.410;2023-03-05T03:54:21;99121.28;;;0.18;85.00
71573;BME280;59408;51.032;9.410;2023-03-05T03:56:48;99112.44;;;0.17;84.73
71573;BME280;59408;51.032;9.410;2023-03-05T03:59:15;99106.28;;;0.17;84.83
71573;BME280;59408;51.032;9.410;2023-03-05T04:01:42;99097.41;;;0.16;84.26
71573;BME280;59408;51.032;9.410;2023-03-05T04:04:11;99098.75;;;0.13;84.66
71573;BME280;59408;51.032;9.410;2023-03-05T04:06:38;99095.00;;;0.15;84.23
71573;BME280;59408;51.032;9.410;2023-03-05T04:09:05;99092.84;;;0.11;84.51
71573;BME280;59408;51.032;9.410;2023-03-05T04:11:32;99090.44;;;0.15;83.49
71573;BME280;59408;51.032;9.410;2023-03-05T04:13:59;99093.38;;;0.19;83.05
71573;BME280;59408;51.032;9.410;2023-03-05T04:16:26;99086.69;;;0.16;83.17
71573;BME280;59408;51.032;9.410;2023-03-05T04:18:53;99088.03;;;0.13;82.92
71573;BME280;59408;51.032;9.410;2023-03-05T04:21:21;99084.00;;;0.16;82.76
71573;BME280;59408;51.032;9.410;2023-03-05T04:23:48;99083.75;;;0.18;81.93
71573;BME280;59408;51.032;9.410;2023-03-05T04:26:14;99085.63;;;0.17;82.57
71573;BME280;59408;51.032;9.410;2023-03-05T04:28:41;99090.69;;;0.19;81.68
71573;BME280;59408;51.032;9.410;2023-03-05T04:31:07;99084.81;;;0.22;81.58
71573;BME280;59408;51.032;9.410;2023-03-05T04:33:34;99087.25;;;0.18;81.90
71573;BME280;59408;51.032;9.410;2023-03-05T04:36:01;99086.13;;;0.19;81.87
71573;BME280;59408;51.032;9.410;2023-03-05T04:38:28;99078.66;;;0.16;82.02
71573;BME280;59408;51.032;9.410;2023-03-05T04:40:55;99070.59;;;0.16;82.29
71573;BME280;59408;51.032;9.410;2023-03-05T04:43:21;99073.03;;;0.18;82.29
71573;BME280;59408;51.032;9.410;2023-03-05T04:45:48;99074.91;;;0.17;81.69
71573;BME280;59408;51.032;9.410;2023-03-05T04:48:15;99064.69;;;0.19;81.31
71573;BME280;59408;51.032;9.410;2023-03-05T04:50:41;99058.25;;;0.20;81.45
71573;BME280;59408;51.032;9.410;2023-03-05T04:53:08;99058.53;;;0.24;81.03
71573;BME280;59408;51.032;9.410;2023-03-05T04:55:36;99062.53;;;0.26;81.23
71573;BME280;59408;51.032;9.410;2023-03-05T04:58:02;99063.59;;;0.20;82.58
71573;BME280;59408;51.032;9.410;2023-03-05T05:00:29;99058.78;;;0.22;81.46
71573;BME280;59408;51.032;9.410;2023-03-05T05:02:56;99053.16;;;0.24;81.63
71573;BME280;59408;51.032;9.410;2023-03-05T05:05:24;99050.75;;;0.27;81.00
71573;BME280;59408;51.032;9.410;2023-03-05T05:07:53;99049.38;;;0.35;80.74
71573;BME280;59408;51.032;9.410;2023-03-05T05:10:20;99049.38;;;0.35;80.47
71573;BME280;59408;51.032;9.410;2023-03-05T05:12:48;99044.28;;;0.33;81.28
71573;BME280;59408;51.032;9.410;2023-03-05T05:15:14;99044.28;;;0.28;81.22
71573;BME280;59408;51.032;9.410;2023-03-05T05:17:41;99039.47;;;0.25;81.58
71573;BME280;59408;51.032;9.410;2023-03-05T05:20:10;99041.09;;;0.26;81.69
71573;BME280;59408;51.032;9.410;2023-03-05T05:22:37;99038.94;;;0.23;82.21
71573;BME280;59408;51.032;9.410;2023-03-05T05:25:04;99040.53;;;0.19;82.13
71573;BME280;59408;51.032;9.410;2023-03-05T05:27:31;99030.09;;;0.18;82.88
71573;BME280;59408;51.032;9.410;2023-03-05T05:29:59;99031.69;;;0.19;82.82
71573;BME280;59408;51.032;9.410;2023-03-05T05:32:26;99037.06;;;0.19;83.01
71573;BME280;59408;51.032;9.410;2023-03-05T05:34:53;99033.88;;;0.17;83.53
71573;BME280;59408;51.032;9.410;2023-03-05T05:37:20;99031.69;;;0.19;82.83
71573;BME280;59408;51.032;9.410;2023-03-05T05:39:47;99035.19;;;0.19;82.95
71573;BME280;59408;51.032;9.410;2023-03-05T05:42:13;99030.91;;;0.18;83.50
71573;BME280;59408;51.032;9.410;2023-03-05T05:44:40;99026.88;;;0.16;83.57
71573;BME280;59408;51.032;9.410;2023-03-05T05:47:08;99045.13;;;0.13;84.21
71573;BME280;59408;51.032;9.410;2023-03-05T05:49:34;99043.53;;;0.18;83.13
71573;BME280;59408;51.032;9.410;2023-03-05T05:52:01;99040.28;;;0.21;83.10
71573;BME280;59408;51.032;9.410;2023-03-05T05:54:28;99032.78;;;0.23;83.33
71573;BME280;59408;51.032;9.410;2023-03-05T05:56:54;99038.66;;;0.20;83.75
71573;BME280;59408;51.032;9.410;2023-03-05T05:59:21;99033.88;;;0.17;83.49
71573;BME280;59408;51.032;9.410;2023-03-05T06:01:48;99036.28;;;0.18;83.20
71573;BME280;59408;51.032;9.410;2023-03-05T06:04:16;99035.97;;;0.20;83.51
71573;BME280;59408;51.032;9.410;2023-03-05T06:06:42;99036.78;;;0.20;83.71
71573;BME280;59408;51.032;9.410;2023-03-05T06:09:09;99043.75;;;0.21;83.20
71573;BME280;59408;51.032;9.410;2023-03-05T06:11:36;99032.50;;;0.24;83.17
71573;BME280;59408;51.032;9.410;2023-03-05T06:14:03;99038.13;;;0.23;83.46
71573;BME280;59408;51.032;9.410;2023-03-05T06:16:30;99028.22;;;0.23;83.81
71573;BME280;59408;51.032;9.410;2023-03-05T06:18:56;99033.03;;;0.21;84.29
71573;BME280;59408;51.032;9.410;2023-03-05T06:21:24;99030.91;;;0.18;84.53
71573;BME280;59408;51.032;9.410;2023-03-05T06:23:51;99029.31;;;0.17;85.12
71573;BME280;59408;51.032;9.410;2023-03-05T06:26:19;99032.78;;;0.18;85.39
71573;BME280;59408;51.032;9.410;2023-03-05T06:28:46;99029.00;;;0.19;85.11
71573;BME280;59408;51.032;9.410;2023-03-05T06:31:15;99031.69;;;0.24;84.78
71573;BME280;59408;51.032;9.410;2023-03-05T06:33:42;99031.97;;;0.27;84.53
71573;BME280;59408;51.032;9.410;2023-03-05T06:36:11;99026.59;;;0.32;84.02
71573;BME280;59408;51.032;9.410;2023-03-05T06:38:39;99020.94;;;0.34;84.10
71573;BME280;59408;51.032;9.410;2023-03-05T06:41:07;99019.59;;;0.36;84.46
71573;BME280;59408;51.032;9.410;2023-03-05T06:43:35;99020.69;;;0.35;84.96
71573;BME280;59408;51.032;9.410;2023-03-05T06:46:02;99027.66;;;0.36;85.09
71573;BME280;59408;51.032;9.410;2023-03-05T06:48:29;99023.88;;;0.37;85.14
71573;BME280;59408;51.032;9.410;2023-03-05T06:50:56;99028.97;;;0.39;85.20
71573;BME280;59408;51.032;9.410;2023-03-05T06:53:22;99025.22;;;0.40;85.15
71573;BME280;59408;51.032;9.410;2023-03-05T06:55:50;99029.25;;;0.42;85.50
71573;BME280;59408;51.032;9.410;2023-03-05T06:58:17;99025.22;;;0.45;85.48
71573;BME280;59408;51.032;9.410;2023-03-05T07:00:44;99030.03;;;0.48;85.43
71573;BME280;59408;51.032;9.410;2023-03-05T07:03:11;99030.03;;;0.53;85.14
71573;BME280;59408;51.032;9.410;2023-03-05T07:05:38;99031.06;;;0.57;85.53
71573;BME280;59408;51.032;9.410;2023-03-05T07:08:05;99028.13;;;0.64;84.71
71573;BME280;59408;51.032;9.410;2023-03-05T07:10:36;99037.47;;;0.66;84.90
71573;BME280;59408;51.032;9.410;2023-03-05T07:13:04;99028.88;;;0.69;84.77
71573;BME280;59408;51.032;9.410;2023-03-05T07:15:31;99029.97;;;0.68;85.00
71573;BME280;59408;51.032;9.410;2023-03-05T07:17:58;99020.56;;;0.71;84.92
71573;BME280;59408;51.032;9.410;2023-03-05T07:20:24;99017.06;;;0.70;84.87
71573;BME280;59408;51.032;9.410;2023-03-05T07:22:51;99021.59;;;0.75;84.92
71573;BME280;59408;51.032;9.410;2023-03-05T07:25:18;99023.22;;;0.76;84.93
71573;BME280;59408;51.032;9.410;2023-03-05T07:27:44;99018.91;;;0.80;84.85
71573;BME280;59408;51.032;9.410;2023-03-05T07:30:13;99017.84;;;0.81;84.95
71573;BME280;59408;51.032;9.410;2023-03-05T07:32:40;99015.16;;;0.81;85.02
71573;BME280;59408;51.032;9.410;2023-03-05T07:35:07;99017.84;;;0.81;85.52
71573;BME280;59408;51.032;9.410;2023-03-05T07:37:34;99016.78;;;0.77;85.80
71573;BME280;59408;51.032;9.410;2023-03-05T07:40:01;99012.16;;;0.82;86.40
71573;BME280;59408;51.032;9.410;2023-03-05T07:42:28;99014.59;;;0.84;86.39
71573;BME280;59408;51.032;9.410;2023-03-05T07:44:54;99014.56;;;0.89;86.75
71573;BME280;59408;51.032;9.410;2023-03-05T07:47:22;99006.22;;;0.96;86.71
71573;BME280;59408;51.032;9.410;2023-03-05T07:49:49;99007.25;;;1.05;86.37
71573;BME280;59408;51.032;9.410;2023-03-05T07:52:16;99006.72;;;1.03;86.21
71573;BME280;59408;51.032;9.410;2023-03-05T07:54:43;99012.06;;;1.08;86.03
71573;BME280;59408;51.032;9.410;2023-03-05T07:57:10;99000.75;;;1.11;86.39
71573;BME280;59408;51.032;9.410;2023-03-05T07:59:37;98998.28;;;1.19;86.48
71573;BME280;59408;51.032;9.410;2023-03-05T08:02:04;99006.59;;;1.23;86.16
71573;BME280;59408;51.032;9.410;2023-03-05T08:04:32;99010.09;;;1.23;86.63
71573;BME280;59408;51.032;9.410;2023-03-05T08:06:59;99005.19;;;1.31;86.98
71573;BME280;59408;51.032;9.410;2023-03-05T08:09:26;98999.50;;;1.37;86.42
71573;BME280;59408;51.032;9.410;2023-03-05T08:11:53;99001.28;;;1.52;86.46
71573;BME280;59408;51.032;9.410;2023-03-05T08:14:20;98992.97;;;1.53;86.15
71573;BME280;59408;51.032;9.410;2023-03-05T08:16:47;98990.28;;;1.53;85.27
71573;BME280;59408;51.032;9.410;2023-03-05T08:19:14;98990.81;;;1.50;85.56
71573;BME280;59408;51.032;9.410;2023-03-05T08:21:41;98979.53;;;1.48;85.70
71573;BME280;59408;51.032;9.410;2023-03-05T08:24:10;98981.34;;;1.58;85.48
71573;BME280;59408;51.032;9.410;2023-03-05T08:26:38;98979.09;;;1.70;85.82
71573;BME280;59408;51.032;9.410;2023-03-05T08:29:05;98973.66;;;1.80;85.49
71573;BME280;59408;51.032;9.410;2023-03-05T08:31:33;98969.72;;;1.96;85.42
71573;BME280;59408;51.032;9.410;2023-03-05T08:34:01;98973.22;;;1.97;84.63
71573;BME280;59408;51.032;9.410;2023-03-05T08:36:28;98966.59;;;1.84;83.97
71573;BME280;59408;51.032;9.410;2023-03-05T08:38:56;98968.13;;;1.95;84.38
71573;BME280;59408;51.032;9.410;2023-03-05T08:41:23;98976.13;;;2.00;84.20
71573;BME280;59408;51.032;9.410;2023-03-05T08:43:49;98972.31;;;2.07;84.08
71573;BME280;59408;51.032;9.410;2023-03-05T08:46:16;98971.69;;;2.15;84.26
71573;BME280;59408;51.032;9.410;2023-03-05T08:48:43;98974.56;;;2.23;83.34
71573;BME280;59408;51.032;9.410;2023-03-05T08:51:11;98966.25;;;2.20;83.40
71573;BME280;59408;51.032;9.410;2023-03-05T08:53:38;98970.53;;;2.21;83.82
71573;BME280;59408;51.032;9.410;2023-03-05T08:56:08;98957.59;;;2.23;83.86
71573;BME280;59408;51.032;9.410;2023-03-05T08:58:34;98966.31;;;2.15;82.66
71573;BME280;59408;51.032;9.410;2023-03-05T09:01:01;98961.44;;;2.17;82.75
71573;BME280;59408;51.032;9.410;2023-03-05T09:03:28;98964.81;;;2.04;83.37
71573;BME280;59408;51.032;9.410;2023-03-05T09:05:58;98959.88;;;2.11;83.44
71573;BME280;59408;51.032;9.410;2023-03-05T09:08:25;98957.44;;;2.14;83.03
71573;BME280;59408;51.032;9.410;2023-03-05T09:10:52;98939.41;;;2.15;82.85
71573;BME280;59408;51.032;9.410;2023-03-05T09:13:20;98941.75;;;2.21;82.76
71573;BME280;59408;51.032;9.410;2023-03-05T09:15:53;98956.69;;;2.32;81.53
71573;BME280;59408;51.032;9.410;2023-03-05T09:18:19;98940.63;;;2.46;81.81
71573;BME280;59408;51.032;9.410;2023-03-05T09:20:46;98941.72;;;2.69;80.78
71573;BME280;59408;51.032;9.410;2023-03-05T09:23:12;98941.56;;;2.79;79.25
71573;BME280;59408;51.032;9.410;2023-03-05T09:25:39;98942.41;;;2.98;78.35
71573;BME280;59408;51.032;9.410;2023-03-05T09:28:06;98937.16;;;3.07;78.67
71573;BME280;59408;51.032;9.410;2023-03-05T09:30:34;98936.88;;;3.08;78.12
71573;BME280;59408;51.032;9.410;2023-03-05T09:33:01;98939.31;;;3.05;77.51
71573;BME280;59408;51.032;9.410;2023-03-05T09:35:27;98933.34;;;3.27;77.90
71573;BME280;59408;51.032;9.410;2023-03-05T09:37:54;98933.97;;;3.37;76.68
71573;BME280;59408;51.032;9.410;2023-03-05T09:40:22;98926.16;;;3.55;75.67
71573;BME280;59408;51.032;9.410;2023-03-05T09:43:02;98923.75;;;3.53;74.72
71573;BME280;59408;51.032;9.410;2023-03-05T09:45:39;98916.56;;;3.30;75.04
71573;BME280;59408;51.032;9.410;2023-03-05T09:48:14;98919.66;;;3.04;75.49
71573;BME280;59408;51.032;9.410;2023-03-05T09:50:43;98914.72;;;2.93;76.54
71573;BME280;59408;51.032;9.410;2023-03-05T09:53:19;98912.38;;;2.86;75.95
71573;BME280;59408;51.032;9.410;2023-03-05T09:55:49;98904.88;;;2.83;76.70
71573;BME280;59408;51.032;9.410;2023-03-05T09:58:20;98915.44;;;2.80;76.75
71573;BME280;59408;51.032;9.410;2023-03-05T10:00:50;98911.44;;;2.77;76.56
71573;BME280;59408;51.032;9.410;2023-03-05T10:03:24;98908.50;;;2.73;77.41
71573;BME280;59408;51.032;9.410;2023-03-05T10:05:59;98902.41;;;2.87;77.69
71573;BME280;59408;51.032;9.410;2023-03-05T10:08:32;98902.84;;;2.94;76.56
71573;BME280;59408;51.032;9.410;2023-03-05T10:11:12;98906.19;;;2.86;76.46
71573;BME280;59408;51.032;9.410;2023-03-05T10:13:45;98902.28;;;2.78;76.35
71573;BME280;59408;51.032;9.410;2023-03-05T10:16:29;98905.38;;;2.66;77.06
71573;BME280;59408;51.032;9.410;2023-03-05T10:19:00;98907.13;;;2.57;78.44
71573;BME280;59408;51.032;9.410;2023-03-05T10:21:37;98904.00;;;2.50;78.22
71573;BME280;59408;51.032;9.410;2023-03-05T10:24:10;98901.31;;;2.50;79.85
71573;BME280;59408;51.032;9.410;2023-03-05T10:26:49;98908.13;;;2.43;80.09
71573;BME280;59408;51.032;9.410;2023-03-05T10:29:34;98900.91;;;2.38;80.00
71573;BME280;59408;51.032;9.410;2023-03-05T10:32:13;98903.91;;;2.36;80.25
71573;BME280;59408;51.032;9.410;2023-03-05T10:34:54;98895.19;;;2.45;80.56
71573;BME280;59408;51.032;9.410;2023-03-05T10:37:39;98889.28;;;2.43;80.32
71573;BME280;59408;51.032;9.410;2023-03-05T10:40:16;98883.50;;;2.54;80.82
71573;BME280;59408;51.032;9.410;2023-03-05T10:42:51;98883.84;;;2.66;79.70
71573;BME280;59408;51.032;9.410;2023-03-05T10:45:20;98877.66;;;2.66;79.49
71573;BME280;59408;51.032;9.410;2023-03-05T10:47:54;98876.56;;;2.67;78.51
71573;BME280;59408;51.032;9.410;2023-03-05T10:50:23;98879.41;;;2.75;79.33
71573;BME280;59408;51.032;9.410;2023-03-05T10:52:53;98869.94;;;2.97;78.98
71573;BME280;59408;51.032;9.410;2023-03-05T10:55:24;98871.81;;;3.15;78.01
71573;BME280;59408;51.032;9.410;2023-03-05T10:57:51;98863.94;;;3.19;77.17
71573;BME280;59408;51.032;9.410;2023-03-05T11:00:19;98851.69;;;3.26;76.67
71573;BME280;59408;51.032;9.410;2023-03-05T11:02:57;98856.53;;;3.43;77.13
71573;BME280;59408;51.032;9.410;2023-03-05T11:05:45;98854.81;;;3.47;76.13
71573;BME280;59408;51.032;9.410;2023-03-05T11:08:25;98860.38;;;3.69;75.99
71573;BME280;59408;51.032;9.410;2023-03-05T11:11:04;98851.31;;;3.46;75.75
71573;BME280;59408;51.032;9.410;2023-03-05T11:13:32;98846.03;;;3.41;75.70
71573;BME280;59408;51.032;9.410;2023-03-05T11:15:59;98848.25;;;3.21;75.03
71573;BME280;59408;51.032;9.410;2023-03-05T11:18:28;98842.63;;;3.03;76.27
71573;BME280;59408;51.032;9.410;2023-03-05T11:21:06;98838.16;;;3.12;78.11
71573;BME280;59408;51.032;9.410;2023-03-05T11:23:33;98835.75;;;3.11;77.50
71573;BME280;59408;51.032;9.410;2023-03-05T11:26:01;98831.69;;;3.13;76.86
71573;BME280;59408;51.032;9.410;2023-03-05T11:28:31;98833.88;;;2.93;78.64
71573;BME280;59408;51.032;9.410;2023-03-05T11:31:05;98837.13;;;2.76;80.38
71573;BME280;59408;51.032;9.410;2023-03-05T11:33:34;98834.72;;;2.74;79.54
71573;BME280;59408;51.032;9.410;2023-03-05T11:36:20;98837.22;;;2.71;79.83
71573;BME280;59408;51.032;9.410;2023-03-05T11:38:51;98834.22;;;2.72;80.68
71573;BME280;59408;51.032;9.410;2023-03-05T11:41:23;98832.47;;;2.82;81.63
71573;BME280;59408;51.032;9.410;2023-03-05T11:43:53;98825.91;;;2.69;82.08
71573;BME280;59408;51.032;9.410;2023-03-05T11:46:20;98821.19;;;2.61;82.10
71573;BME280;59408;51.032;9.410;2023-03-05T11:48:48;98824.88;;;2.65;82.94
71573;BME280;59408;51.032;9.410;2023-03-05T11:51:19;98819.72;;;2.68;83.68
71573;BME280;59408;51.032;9.410;2023-03-05T11:53:49;98814.78;;;2.75;83.00
71573;BME280;59408;51.032;9.410;2023-03-05T11:56:20;98813.81;;;2.85;83.98
71573;BME280;59408;51.032;9.410;2023-03-05T11:58:53;98822.56;;;2.77;84.36
71573;BME280;59408;51.032;9.410;2023-03-05T12:01:24;98827.94;;;2.77;84.89
71573;BME280;59408;51.032;9.410;2023-03-05T12:03:54;98821.91;;;2.66;83.88
71573;BME280;59408;51.032;9.410;2023-03-05T12:06:27;98816.00;;;2.64;84.43
71573;BME280;59408;51.032;9.410;2023-03-05T12:08:56;98821.19;;;2.61;84.91
71573;BME280;59408;51.032;9.410;2023-03-05T12:11:27;98812.47;;;2.69;84.68
71573;BME280;59408;51.032;9.410;2023-03-05T12:13:56;98820.63;;;2.64;85.76
71573;BME280;59408;51.032;9.410;2023-03-05T12:16:27;98813.53;;;2.30;88.61
71573;BME280;59408;51.032;9.410;2023-03-05T12:19:11;98810.47;;;2.37;89.02
71573;BME280;59408;51.032;9.410;2023-03-05T12:21:40;98808.53;;;2.43;90.33
71573;BME280;59408;51.032;9.410;2023-03-05T12:24:32;98803.53;;;2.36;89.43
71573;BME280;59408;51.032;9.410;2023-03-05T12:27:16;98795.88;;;2.43;91.34
71573;BME280;59408;51.032;9.410;2023-03-05T12:29:56;98794.50;;;2.46;91.61
71573;BME280;59408;51.032;9.410;2023-03-05T12:32:51;98799.81;;;2.51;91.89
71573;BME280;59408;51.032;9.410;2023-03-05T12:35:24;98789.19;;;2.59;90.54
71573;BME280;59408;51.032;9.410;2023-03-05T12:37:59;98788.88;;;2.61;92.73
71573;BME280;59408;51.032;9.410;2023-03-05T12:40:29;98792.25;;;2.53;89.99
71573;BME280;59408;51.032;9.410;2023-03-05T12:42:58;98789.31;;;2.49;90.48
71573;BME280;59408;51.032;9.410;2023-03-05T12:45:37;98784.22;;;2.29;91.78
71573;BME280;59408;51.032;9.410;2023-03-05T12:48:42;98780.72;;;2.28;93.11
71573;BME280;59408;51.032;9.410;2023-03-05T12:51:30;98778.41;;;2.22;93.02
71573;BME280;59408;51.032;9.410;2023-03-05T12:54:23;98769.69;;;2.30;92.96
71573;BME280;59408;51.032;9.410;2023-03-05T12:56:54;98774.72;;;2.36;94.29
71573;BME280;59408;51.032;9.410;2023-03-05T12:59:23;98757.78;;;2.36;94.20
71573;BME280;59408;51.032;9.410;2023-03-05T13:01:55;98753.25;;;2.31;93.00
71573;BME280;59408;51.032;9.410;2023-03-05T13:04:24;98748.81;;;2.22;93.07
71573;BME280;59408;51.032;9.410;2023-03-05T13:07:02;98733.84;;;2.34;93.51
71573;BME280;59408;51.032;9.410;2023-03-05T13:09:31;98740.44;;;2.42;93.59
71573;BME280;59408;51.032;9.410;2023-03-05T13:11:58;98736.97;;;2.42;92.18
71573;BME280;59408;51.032;9.410;2023-03-05T13:14:33;98730.03;;;2.54;90.09
71573;BME280;59408;51.032;9.410;2023-03-05T13:17:02;98735.56;;;2.63;89.84
71573;BME280;59408;51.032;9.410;2023-03-05T13:19:30;98731.78;;;2.64;89.61